WetterOnline ( http://www.wetteronline.de )

Wetter aktuell Harz (in 600m)

Aktuelles Wetter: Braunlage (609m)

6-stündlich | Neueste Meldungen
Ortszeit Temperatur Wetter
Do, 19.04. 14:00 21.6° C fast wolkenlos
Do, 19.04. 8:00 12.6° C wolkenlos
Do, 19.04. 2:00 11.6° C wolkenlos
Mi, 18.04. 20:00 16.9° C fast wolkenlos
Mi, 18.04. 14:00 20.1° C leicht bewölkt
Mi, 18.04. 8:00 10.2° C fast wolkenlos
Mi, 18.04. 2:00 7.7° C wolkenlos
Di, 17.04. 20:00 11.7° C leicht bewölkt
Ortszeit Temperatur Wetter
Do, 19.04. 17:30 21.3° C wolkenlos
Do, 19.04. 17:20 21.3° C wolkenlos
Do, 19.04. 17:10 21.3° C fast wolkenlos
Do, 19.04. 17:00 21.4° C leicht bewölkt
Do, 19.04. 16:50 21.4° C leicht bewölkt
Do, 19.04. 16:40 21.4° C fast wolkenlos
Do, 19.04. 16:30 21.7° C fast wolkenlos
Do, 19.04. 16:00 21.4° C fast wolkenlos
Do, 19.04. 15:30 22.2° C leicht bewölkt
Do, 19.04. 15:00 22.0° C fast wolkenlos
Do, 19.04. 14:30 22.3° C leicht bewölkt
Ortszeit Relative Feuchte Sichtweite
Do, 19.04. 14:00 38% 25 km
Do, 19.04. 8:00 75% 13 km
Do, 19.04. 2:00 80% 10 km
Mi, 18.04. 20:00 63% 16 km
Mi, 18.04. 14:00 47% 28 km
Mi, 18.04. 8:00 83% 25 km
Mi, 18.04. 2:00 95% 7 km
Di, 17.04. 20:00 68% 35 km
Ortszeit Relative Feuchte Sichtweite
Do, 19.04. 17:30 39% 16 km
Do, 19.04. 17:20 39% -
Do, 19.04. 17:10 38% -
Do, 19.04. 17:00 37% 18 km
Do, 19.04. 16:50 37% -
Do, 19.04. 16:40 37% -
Do, 19.04. 16:30 38% 21 km
Do, 19.04. 16:00 40% 20 km
Do, 19.04. 15:30 33% 29 km
Do, 19.04. 15:00 39% 26 km
Do, 19.04. 14:30 40% 24 km
Ortszeit Niederschlagsmenge Niederschlagsart
Do, 19.04. 14:00 0.0 l/m2 in 6 Std. -
Do, 19.04. 8:00 0.0 l/m2 in 12 Std. -
Do, 19.04. 2:00 0.0 l/m2 in 6 Std. -
Mi, 18.04. 20:00 0.0 l/m2 in 12 Std. -
Mi, 18.04. 14:00 0.0 l/m2 in 6 Std. -
Mi, 18.04. 8:00 0.0 l/m2 in 12 Std. -
Mi, 18.04. 2:00 0.0 l/m2 in 6 Std. -
Di, 17.04. 20:00 0.0 l/m2 in 12 Std. -
Ortszeit Niederschlagsmenge Niederschlagsart
Do, 19.04. 17:30 0.0 l/m2 in 1 Std. -
Do, 19.04. 17:20 keine Meldung -
Do, 19.04. 17:10 keine Meldung -
Do, 19.04. 17:00 0.0 l/m2 in 1 Std. -
Do, 19.04. 16:50 keine Meldung -
Do, 19.04. 16:40 keine Meldung -
Do, 19.04. 16:30 0.0 l/m2 in 1 Std. -
Do, 19.04. 16:00 0.0 l/m2 in 1 Std. -
Do, 19.04. 15:30 0.0 l/m2 in 1 Std. -
Do, 19.04. 15:00 0.0 l/m2 in 1 Std. -
Do, 19.04. 14:30 0.0 l/m2 in 1 Std. -
Ortszeit Stärke Spitze Richtung
km/h Bft. km/h Grad Sektor
Do, 19.04. 14:00 7 2 22 80° O
Do, 19.04. 8:00 6 1 11 10° N
Do, 19.04. 2:00 7 2 14 360° N
Mi, 18.04. 20:00 6 1 24 50° NO
Mi, 18.04. 14:00 9 2 19 120° SO
Mi, 18.04. 8:00 2 1 9 360° N
Mi, 18.04. 2:00 0 0 7 - -
Di, 17.04. 20:00 4 1 25 40° NO
Ortszeit Stärke Spitze Richtung
km/h Bft. km/h Grad Sektor
Do, 19.04. 17:30 13 3 22 120° SO
Do, 19.04. 17:20 13 3 - 120° SO
Do, 19.04. 17:10 13 3 - 150° SO
Do, 19.04. 17:00 13 3 28 150° SO
Do, 19.04. 16:50 13 3 - 150° SO
Do, 19.04. 16:40 14 3 - 140° SO
Do, 19.04. 16:30 14 3 29 130° SO
Do, 19.04. 16:00 13 3 24 140° SO
Do, 19.04. 15:30 11 2 24 100° O
Do, 19.04. 15:00 14 3 29 130° SO
Do, 19.04. 14:30 9 2 22 130° SO
Ortszeit Untergrenze Bedeckung Gattung
total tief tief mittel hoch
Do, 19.04. 14:00 10500 m 1/8 0/8 - - -
Do, 19.04. 8:00 - 0/8 0/8 - - -
Do, 19.04. 2:00 - 0/8 0/8 - - -
Mi, 18.04. 20:00 10500 m 1/8 0/8 - - -
Mi, 18.04. 14:00 1500 m 2/8 1/8 - - -
Mi, 18.04. 8:00 5100 m 1/8 1/8 - - -
Mi, 18.04. 2:00 - 0/8 0/8 - - -
Di, 17.04. 20:00 8700 m 4/8 0/8 - - -
Ortszeit Bedeckungsgrad in Achtel und Wolkenuntergrenze
Do, 19.04. 17:30 keine Wolken
Do, 19.04. 17:20 keine Wolken
Do, 19.04. 17:10 1(9000m) 2(10500m)
Do, 19.04. 17:00 2(9000m) 4(10500m)
Do, 19.04. 16:50 2(9000m) 4(10500m)
Do, 19.04. 16:40 2(10500m)
Do, 19.04. 16:30 2(10500m) 2(10500m)
Do, 19.04. 16:00 1(10500m)
Do, 19.04. 15:30 4(10500m)
Do, 19.04. 15:00 1(10500m)
Do, 19.04. 14:30 3(10500m)
Ortszeit Luftdruck NN (hPa) Tendenz (hPa in 3 Std.)
Do, 19.04. 14:00 1029 - 1,2
Do, 19.04. 8:00 1032 - 0,2
Do, 19.04. 2:00 1033 + 0,2
Mi, 18.04. 20:00 1031 - 0,2
Mi, 18.04. 14:00 1031 - 0,1
Mi, 18.04. 8:00 1032 + 1,1
Mi, 18.04. 2:00 1031 + 0,9
Di, 17.04. 20:00 1027 + 0,9
Ortszeit Luftdruck NN (hPa) Tendenz (hPa in 3 Std.)
Do, 19.04. 17:30 1027 - 1,0
Do, 19.04. 17:20 1027 keine Meldung
Do, 19.04. 17:10 1027 keine Meldung
Do, 19.04. 17:00 1028 - 1,0
Do, 19.04. 16:50 1028 keine Meldung
Do, 19.04. 16:40 1028 keine Meldung
Do, 19.04. 16:30 1028 - 1,2
Do, 19.04. 16:00 1028 - 1,2
Do, 19.04. 15:30 1028 - 1,1
Do, 19.04. 15:00 1028 - 1,2
Do, 19.04. 14:30 1028 - 1,1
Ortszeit Schneehöhe (cm)
Do, 19.04. 14:00 0
Do, 19.04. 8:00 0
Do, 19.04. 2:00 0
Mi, 18.04. 20:00 0
Mi, 18.04. 14:00 0
Mi, 18.04. 8:00 0
Mi, 18.04. 2:00 0
Di, 17.04. 20:00 0
Ortszeit Schneehöhe (cm)
Do, 19.04. 17:30 0
Do, 19.04. 17:20 0
Do, 19.04. 17:10 0
Do, 19.04. 17:00 0
Do, 19.04. 16:50 0
Do, 19.04. 16:40 0
Do, 19.04. 16:30 0
Do, 19.04. 16:00 0
Do, 19.04. 15:30 0
Do, 19.04. 15:00 0
Do, 19.04. 14:30 0
Link zu dieser Seite / Seite empfehlen

Das Wetter in ...